MUGM/NBW METAR and TAF weather

Enter ICAO airport designator
Station Type Date Time Source
MUGM METAR 2021/03/04 20:51 UTC NOAA

MUGM 042051Z 24018KT 10SM FEW030 BKN100 28/21 A2992 RMK AO2 SLP132 T02830211 56018 $


Station Type Date Time Source
MUGM Decoded METAR 2021/03/04 20:51 UTC NOAA

GUANTANAMO BAY, CUBA NAVAL, CU, Cuba (MUGM) 19-55N 075-12W 23M
Mar 04, 2021 - 03:51 PM EST / 2021.03.04 2051 UTC
Wind: from the WSW (240 degrees) at 21 MPH (18 KT):0
Visibility: 10 mile(s):0
Sky conditions: mostly cloudy
Temperature: 82.9 F (28.3 C)
Dew Point: 70.0 F (21.1 C)
Relative Humidity: 65%
Pressure (altimeter): 29.92 in. Hg (1013 hPa)
Pressure tendency: 0.05 inches (1.8 hPa) lower than three hours ago
ob: MUGM 042051Z 24018KT 10SM FEW030 BKN100 28/21 A2992 RMK AO2 SLP132 T02830211 56018
cycle: 21

Station Type Date Time Source
MUGM TAF 2021/03/04 19:18 UTC NOAA

TAF
AMD MUGM 0419/0515 24018KT 9999 SCT025 BKN080 QNH2990INS
BECMG 0421/0423 23015KT 9999 VCSH SCT025 BKN070 QNH2989INS
BECMG 0500/0502 25009KT 9999 VCSH FEW025 BKN070 QNH2991INS
FM050400 31011KT 9999 SCT030 SCT090 QNH2989INS T29/0420Z T22/0511Z
AMD 041906 FN20024

Example: see airport list